Terminal Aerodrome Forecast
Issued by NWS

Home | Current Version | Previous Version | Text Only | Print | Product List | Glossary Off
Versions: 1 2 3 4 5 6 7 8 9 10 11 12 13 14 15 16 17 18 19 20

000
FTUS42 KMHX 040533
TAFISO
TAF
KISO 040533Z 0406/0506 20008KT 3/4SM BR VV001 WS015/22040KT
     FM041330 22011G16KT P6SM BKN007
     FM041500 22017G24KT P6SM SCT040
     FM050100 20012KT 6SM BR SCT006
      AMD LTD TO CLD VIS AND WIND=

USA.gov is the U.S. government's official web portal to all federal, state and local government web resources and services.